createdAt,value
2022-08-05T00:45:53.679Z,99769.03
2022-08-05T00:47:31.788Z,99783.75
2022-08-05T00:49:20.733Z,99778.59
2022-08-05T00:50:53.221Z,99777.75
2022-08-05T00:52:28.598Z,99776.97
2022-08-05T00:54:02.591Z,99776.44
2022-08-05T00:55:42.811Z,99780.88
2022-08-05T00:57:15.846Z,99776.78
2022-08-05T00:58:53.694Z,99776.88
2022-08-05T01:00:26.306Z,99781.25
2022-08-05T01:01:58.342Z,99773.50
2022-08-05T01:03:33.328Z,99774.56
2022-08-05T01:05:10.054Z,99779.84
2022-08-05T01:06:43.695Z,99779.91
2022-08-05T01:08:40.662Z,99780.06
2022-08-05T01:10:14.509Z,99777.56
2022-08-05T01:11:49.437Z,99781.03
2022-08-05T01:14:08.871Z,99774.03
2022-08-05T01:15:47.876Z,99777.56
2022-08-05T01:17:27.901Z,99783.84
2022-08-05T01:19:12.133Z,99778.72
2022-08-05T01:21:37.918Z,99781.41
2022-08-05T01:23:42.474Z,99775.41
2022-08-05T01:25:40.057Z,99786.75
2022-08-05T01:27:50.853Z,99794.63
2022-08-05T01:29:34.952Z,99791.22
2022-08-05T01:31:12.862Z,99786.22
2022-08-05T01:32:46.021Z,99788.25
2022-08-05T01:34:28.798Z,99789.81
2022-08-05T01:36:02.057Z,99790.72
2022-08-05T01:37:46.860Z,99793.50
2022-08-05T01:39:46.371Z,99795.56
2022-08-05T01:41:11.868Z,99789.81
2022-08-05T01:42:47.567Z,99795.19
2022-08-05T01:44:20.147Z,99799.78
2022-08-05T01:45:57.204Z,99793.88
2022-08-05T01:47:39.631Z,99795.88
2022-08-05T01:49:23.777Z,99798.56
2022-08-05T01:50:57.286Z,99792.53
2022-08-05T01:52:34.922Z,99801.38
2022-08-05T01:54:09.848Z,99804.06
2022-08-05T01:55:44.510Z,99807.50
2022-08-05T01:58:09.488Z,99808.50
2022-08-05T01:59:14.401Z,99807.81
2022-08-05T02:00:51.031Z,99808.59
2022-08-05T02:02:28.423Z,99807.66
2022-08-05T02:04:01.482Z,99806.81
2022-08-05T02:05:35.935Z,99805.09
2022-08-05T02:07:08.747Z,99808.59
2022-08-05T02:08:44.887Z,99816.44
2022-08-05T02:10:28.708Z,99803.53
2022-08-05T02:12:18.180Z,99814.94
2022-08-05T02:14:12.900Z,99810.59
2022-08-05T02:15:51.593Z,99809.81
2022-08-05T02:18:31.093Z,99803.97
2022-08-05T02:19:47.446Z,99811.75
2022-08-05T02:21:23.152Z,99812.59
2022-08-05T02:23:00.684Z,99809.31
2022-08-05T02:24:37.884Z,99813.63
2022-08-05T02:26:11.743Z,99812.53
2022-08-05T02:27:58.479Z,99807.97
2022-08-05T02:29:58.810Z,99808.91
2022-08-05T02:31:34.823Z,99808.91
2022-08-05T02:33:08.894Z,99808.13
2022-08-05T02:34:44.318Z,99808.91
2022-08-05T02:36:31.353Z,99811.53
2022-08-05T02:38:04.618Z,99803.53
2022-08-05T02:39:41.298Z,99806.81
2022-08-05T02:41:17.125Z,99816.22
2022-08-05T02:42:52.786Z,99809.34
2022-08-05T02:44:26.675Z,99811.22
2022-08-05T02:45:59.307Z,99808.72
2022-08-05T02:47:58.427Z,99802.63
2022-08-05T02:49:36.959Z,99807.09
2022-08-05T02:51:10.385Z,99807.09
2022-08-05T02:52:42.828Z,99813.22
2022-08-05T02:54:34.765Z,99815.03
2022-08-05T02:56:09.584Z,99816.75
2022-08-05T02:58:09.654Z,99814.22
2022-08-05T02:59:50.302Z,99818.44
2022-08-05T03:01:25.888Z,99815.66
2022-08-05T03:02:59.471Z,99812.94
2022-08-05T03:04:32.022Z,99811.97
2022-08-05T03:06:54.362Z,99811.91
2022-08-05T03:08:07.097Z,99810.84
2022-08-05T03:09:43.877Z,99815.81
2022-08-05T03:11:56.316Z,99813.13
2022-08-05T03:13:18.713Z,99807.13
2022-08-05T03:15:00.025Z,99809.94
2022-08-05T03:16:32.261Z,99813.53
2022-08-05T03:18:04.487Z,99810.06
2022-08-05T03:19:39.774Z,99808.38
2022-08-05T03:21:14.245Z,99816.28
2022-08-05T03:22:46.882Z,99812.84
2022-08-05T03:24:29.522Z,99816.34
2022-08-05T03:26:30.222Z,99809.28
2022-08-05T03:28:00.174Z,99811.91
2022-08-05T03:29:44.507Z,99814.50
2022-08-05T03:31:41.496Z,99804.06
2022-08-05T03:33:09.421Z,99804.06
2022-08-05T03:34:50.392Z,99805.75
2022-08-05T03:36:30.463Z,99800.53
2022-08-05T03:38:03.249Z,99800.53
2022-08-05T03:39:57.642Z,99801.38
2022-08-05T03:41:33.188Z,99808.22
2022-08-05T03:44:08.335Z,99809.78
2022-08-05T03:45:21.151Z,99806.13
2022-08-05T03:46:54.970Z,99811.22
2022-08-05T03:48:30.468Z,99804.94
2022-08-05T03:50:07.634Z,99810.03
2022-08-05T03:52:39.332Z,99806.91
2022-08-05T03:55:50.017Z,99811.03
2022-08-05T03:56:05.756Z,99803.53
2022-08-05T03:57:44.343Z,99811.88
2022-08-05T03:59:29.212Z,99811.47
2022-08-05T04:01:22.346Z,99810.44
2022-08-05T04:02:58.612Z,99818.13
2022-08-05T04:04:32.210Z,99809.13
2022-08-05T04:06:06.300Z,99812.31
2022-08-05T04:07:51.394Z,99808.78
2022-08-05T04:09:30.993Z,99814.78
2022-08-05T04:11:09.949Z,99818.03
2022-08-05T04:14:17.838Z,99806.31
2022-08-05T04:16:03.243Z,99802.34
2022-08-05T04:17:56.104Z,99808.03
2022-08-05T04:19:30.051Z,99804.06
2022-08-05T04:21:04.021Z,99802.84
2022-08-05T04:22:36.200Z,99801.59
2022-08-05T04:24:18.873Z,99806.59
2022-08-05T04:25:57.372Z,99799.59
2022-08-05T04:27:43.856Z,99804.91
2022-08-05T04:29:25.327Z,99797.28
2022-08-05T04:31:01.051Z,99798.97
2022-08-05T04:32:33.587Z,99802.44
2022-08-05T04:34:18.976Z,99801.59
2022-08-05T04:36:11.394Z,99803.06
2022-08-05T04:38:02.089Z,99799.97
2022-08-05T04:39:39.165Z,99800.28
2022-08-05T04:41:12.432Z,99801.44
2022-08-05T04:42:45.668Z,99801.63
2022-08-05T04:44:21.337Z,99798.53
2022-08-05T04:46:02.095Z,99791.88
2022-08-05T04:47:38.602Z,99793.16
2022-08-05T04:49:15.036Z,99792.66
2022-08-05T04:51:03.547Z,99790.31
2022-08-05T04:52:41.225Z,99794.13
2022-08-05T04:54:15.028Z,99784.38
2022-08-05T04:56:33.408Z,99785.91
2022-08-05T04:57:39.449Z,99792.19
2022-08-05T04:59:22.205Z,99789.91
2022-08-05T05:00:56.282Z,99788.53
2022-08-05T05:02:37.255Z,99786.41
2022-08-05T05:04:13.696Z,99786.06
2022-08-05T05:06:39.071Z,99786.53
2022-08-05T05:07:37.983Z,99784.16
2022-08-05T05:09:18.439Z,99787.94
2022-08-05T05:10:56.275Z,99787.22
2022-08-05T05:12:29.450Z,99779.63
2022-08-05T05:14:03.697Z,99786.06
2022-08-05T05:15:56.953Z,99779.59
2022-08-05T05:17:56.263Z,99782.41
2022-08-05T05:19:23.694Z,99791.34
2022-08-05T05:20:59.718Z,99785.41
2022-08-05T05:22:32.428Z,99787.50
2022-08-05T05:24:09.166Z,99789.47
2022-08-05T05:25:42.546Z,99792.25
2022-08-05T05:27:14.685Z,99796.88
2022-08-05T05:28:49.484Z,99790.84
2022-08-05T05:30:31.495Z,99787.72
2022-08-05T05:32:06.072Z,99793.78
2022-08-05T05:34:01.881Z,99792.47
2022-08-05T05:35:39.618Z,99785.63
2022-08-05T05:37:15.387Z,99786.53
2022-08-05T05:38:47.873Z,99784.75
2022-08-05T05:40:22.606Z,99782.28
2022-08-05T05:41:58.282Z,99781.34
2022-08-05T05:43:56.904Z,99780.59
2022-08-05T05:45:24.790Z,99779.34
2022-08-05T05:46:58.008Z,99785.25
2022-08-05T05:48:30.388Z,99785.69
2022-08-05T05:50:04.189Z,99784.34
2022-08-05T05:51:49.738Z,99783.88
2022-08-05T05:53:22.969Z,99788.72
2022-08-05T05:54:55.371Z,99790.09
2022-08-05T05:56:32.861Z,99786.19
2022-08-05T05:58:06.349Z,99790.34
2022-08-05T05:59:40.167Z,99796.03
2022-08-05T06:01:15.294Z,99798.97
2022-08-05T06:02:50.727Z,99794.94
2022-08-05T06:04:22.884Z,99799.06
2022-08-05T06:05:55.730Z,99789.84
2022-08-05T06:07:42.139Z,99792.69
2022-08-05T06:09:25.435Z,99784.31
2022-08-05T06:11:08.468Z,99790.72
2022-08-05T06:12:42.343Z,99792.94
2022-08-05T06:14:14.540Z,99796.81
2022-08-05T06:16:30.232Z,99798.91
2022-08-05T06:17:52.725Z,99794.03
2022-08-05T06:19:34.844Z,99791.91
2022-08-05T06:21:07.948Z,99787.00
2022-08-05T06:22:48.677Z,99796.03
2022-08-05T06:24:25.865Z,99793.66
2022-08-05T06:26:13.330Z,99795.75
2022-08-05T06:28:10.480Z,99794.19
2022-08-05T06:29:51.990Z,99796.03
2022-08-05T06:31:34.719Z,99791.72
2022-08-05T06:33:09.981Z,99789.38
2022-08-05T06:34:43.010Z,99792.25
2022-08-05T06:36:19.187Z,99797.66
2022-08-05T06:37:59.533Z,99784.69
2022-08-05T06:39:34.547Z,99787.72
2022-08-05T06:41:08.259Z,99792.28
2022-08-05T06:42:40.529Z,99791.53
2022-08-05T06:44:12.699Z,99792.88
2022-08-05T06:46:06.662Z,99791.19
2022-08-05T06:48:36.959Z,99793.47
2022-08-05T06:50:01.582Z,99794.16
2022-08-05T06:51:29.600Z,99792.22
2022-08-05T06:53:04.021Z,99788.78
2022-08-05T06:54:43.396Z,99791.66
2022-08-05T06:56:25.732Z,99791.88
2022-08-05T06:58:11.589Z,99791.13
2022-08-05T06:59:57.905Z,99781.56
2022-08-05T07:01:32.273Z,99777.31
2022-08-05T07:03:05.299Z,99778.22
2022-08-05T07:04:41.783Z,99775.88
2022-08-05T07:06:15.148Z,99774.50
2022-08-05T07:07:49.317Z,99771.31
2022-08-05T07:09:21.584Z,99776.00
2022-08-05T07:10:57.051Z,99778.75
2022-08-05T07:12:49.077Z,99781.41
2022-08-05T07:14:40.145Z,99776.75
2022-08-05T07:17:56.312Z,99778.75
2022-08-05T07:18:27.420Z,99774.28
2022-08-05T07:20:32.023Z,99771.78
2022-08-05T07:21:59.454Z,99778.38
2022-08-05T07:23:33.368Z,99778.97
2022-08-05T07:25:23.685Z,99778.88
2022-08-05T07:26:58.611Z,99774.84
2022-08-05T07:28:31.513Z,99773.16
2022-08-05T07:30:24.622Z,99784.53
2022-08-05T07:31:56.078Z,99772.34
2022-08-05T07:33:36.649Z,99777.94
2022-08-05T07:36:03.567Z,99776.41
2022-08-05T07:37:03.381Z,99782.44
2022-08-05T07:38:42.813Z,99775.47
2022-08-05T07:40:31.409Z,99776.00
2022-08-05T07:42:14.193Z,99777.28
2022-08-05T07:43:48.205Z,99773.91
2022-08-05T07:45:31.143Z,99784.38
2022-08-05T07:47:14.889Z,99777.22
2022-08-05T07:49:02.776Z,99783.69
2022-08-05T07:50:38.310Z,99783.94
2022-08-05T07:52:11.242Z,99773.97
2022-08-05T07:53:50.477Z,99776.91
2022-08-05T07:55:44.245Z,99779.84
2022-08-05T07:57:41.771Z,99782.63
2022-08-05T07:59:10.533Z,99772.06
2022-08-05T08:00:44.017Z,99782.00
2022-08-05T08:02:18.151Z,99778.75
2022-08-05T08:03:51.377Z,99775.63
2022-08-05T08:05:23.677Z,99778.69
2022-08-05T08:07:01.416Z,99781.22
2022-08-05T08:08:37.876Z,99775.44
2022-08-05T08:10:10.318Z,99768.53
2022-08-05T08:11:54.291Z,99769.09
2022-08-05T08:13:42.731Z,99776.19
2022-08-05T08:16:33.988Z,99775.88
2022-08-05T08:17:20.548Z,99771.41
2022-08-05T08:18:54.124Z,99770.81
2022-08-05T08:21:01.078Z,99773.84
2022-08-05T08:22:19.768Z,99772.56
2022-08-05T08:24:02.726Z,99778.28
2022-08-05T08:25:59.233Z,99771.34
2022-08-05T08:27:40.186Z,99772.72
2022-08-05T08:29:45.203Z,99771.28
2022-08-05T08:31:14.956Z,99766.16
2022-08-05T08:32:49.738Z,99763.06
2022-08-05T08:34:30.843Z,99770.31
2022-08-05T08:36:38.331Z,99764.34
2022-08-05T08:37:59.192Z,99768.41
2022-08-05T08:39:32.312Z,99758.06
2022-08-05T08:41:14.023Z,99763.81
2022-08-05T08:42:52.470Z,99754.84
2022-08-05T08:45:20.048Z,99759.41
2022-08-05T08:46:18.513Z,99760.28
2022-08-05T08:48:07.375Z,99760.00
2022-08-05T08:50:23.196Z,99756.03
2022-08-05T08:52:03.909Z,99748.38
2022-08-05T08:53:37.808Z,99754.75
2022-08-05T08:55:13.719Z,99750.63
2022-08-05T08:56:52.292Z,99754.31
2022-08-05T08:58:37.579Z,99748.19
2022-08-05T09:00:19.428Z,99744.19
2022-08-05T09:01:57.548Z,99747.06
2022-08-05T09:03:44.970Z,99748.25
2022-08-05T09:05:18.433Z,99749.59
2022-08-05T09:07:19.455Z,99741.94
2022-08-05T09:09:02.400Z,99744.31
2022-08-05T09:10:34.535Z,99736.81
2022-08-05T09:12:20.739Z,99731.81
2022-08-05T09:14:54.378Z,99730.97
2022-08-05T09:15:54.440Z,99729.50
2022-08-05T09:17:40.478Z,99730.31
2022-08-05T09:19:14.816Z,99722.78
2022-08-05T09:20:47.578Z,99719.81
2022-08-05T09:22:31.022Z,99722.81
2022-08-05T09:24:06.833Z,99717.66
2022-08-05T09:26:02.194Z,99721.19
2022-08-05T09:28:03.779Z,99719.00
2022-08-05T09:29:47.531Z,99708.50
2022-08-05T09:32:08.513Z,99716.84
2022-08-05T09:33:15.381Z,99713.69
2022-08-05T09:34:55.989Z,99708.16
2022-08-05T09:36:54.989Z,99711.19
2022-08-05T09:38:32.119Z,99708.69
2022-08-05T09:40:05.306Z,99705.31
2022-08-05T09:42:12.722Z,99704.31
2022-08-05T09:43:50.010Z,99708.31
2022-08-05T09:46:07.887Z,99704.97
2022-08-05T09:47:20.920Z,99703.31
2022-08-05T09:49:06.533Z,99697.59
2022-08-05T09:50:44.427Z,99701.97
2022-08-05T09:52:27.931Z,99691.44
2022-08-05T09:54:00.617Z,99697.78
2022-08-05T09:55:57.297Z,99694.91
2022-08-05T09:57:45.807Z,99698.72
2022-08-05T09:59:27.638Z,99694.69
2022-08-05T10:01:15.450Z,99696.69
2022-08-05T10:02:58.634Z,99690.97
2022-08-05T10:04:38.489Z,99687.94
2022-08-05T10:06:14.733Z,99687.44
2022-08-05T10:08:35.255Z,99689.75
2022-08-05T10:10:13.832Z,99682.16
2022-08-05T10:11:48.412Z,99678.28
2022-08-05T10:13:54.774Z,99685.25
2022-08-05T10:15:34.331Z,99684.75
2022-08-05T10:17:37.168Z,99677.66
2022-08-05T10:19:10.082Z,99681.22
2022-08-05T10:20:51.163Z,99675.69
2022-08-05T10:22:30.322Z,99673.66
2022-08-05T10:24:10.829Z,99667.47
2022-08-05T10:25:43.609Z,99667.31
2022-08-05T10:27:16.855Z,99669.78
2022-08-05T10:28:49.613Z,99667.09
2022-08-05T10:31:19.944Z,99668.09
2022-08-05T10:32:52.430Z,99659.31
2022-08-05T10:34:08.651Z,99657.31
2022-08-05T10:35:44.155Z,99652.59
2022-08-05T10:37:17.174Z,99658.75
2022-08-05T10:38:49.975Z,99651.00
2022-08-05T10:40:35.851Z,99660.28
2022-08-05T10:42:22.889Z,99655.31
2022-08-05T10:44:09.529Z,99649.03
2022-08-05T10:45:42.946Z,99648.25
2022-08-05T10:47:26.614Z,99646.16
2022-08-05T10:49:10.467Z,99649.88
2022-08-05T10:50:59.745Z,99636.47
2022-08-05T10:52:49.615Z,99633.78
2022-08-05T10:54:28.881Z,99632.34
2022-08-05T10:56:21.250Z,99640.00
2022-08-05T10:58:08.563Z,99642.69
2022-08-05T11:00:03.676Z,99640.16
2022-08-05T11:01:54.082Z,99635.75
2022-08-05T11:03:31.100Z,99630.72
2022-08-05T11:05:10.629Z,99631.56
2022-08-05T11:07:01.498Z,99621.47
2022-08-05T11:08:37.892Z,99629.25
2022-08-05T11:10:22.874Z,99633.50
2022-08-05T11:12:00.293Z,99630.53
2022-08-05T11:13:55.113Z,99626.88
2022-08-05T11:15:59.498Z,99630.47
2022-08-05T11:17:57.478Z,99627.91
2022-08-05T11:20:17.018Z,99627.38
2022-08-05T11:21:40.863Z,99619.09
2022-08-05T11:24:03.876Z,99623.41
2022-08-05T11:26:05.418Z,99620.00
2022-08-05T11:27:51.000Z,99615.75
2022-08-05T11:29:41.451Z,99617.00
2022-08-05T11:31:19.642Z,99612.72
2022-08-05T11:33:46.016Z,99609.44
2022-08-05T11:36:07.731Z,99608.53
2022-08-05T11:38:26.111Z,99607.81
2022-08-05T11:40:00.211Z,99594.59
2022-08-05T11:41:56.236Z,99600.97
2022-08-05T11:44:00.999Z,99600.41
2022-08-05T11:46:15.594Z,99600.22
2022-08-05T11:47:21.762Z,99588.53
2022-08-05T11:48:55.957Z,99592.44
2022-08-05T11:50:29.315Z,99598.38
2022-08-05T11:52:02.107Z,99595.69
2022-08-05T11:53:44.203Z,99594.69
2022-08-05T11:55:17.473Z,99594.84
2022-08-05T11:56:54.755Z,99592.47
2022-08-05T11:58:34.841Z,99585.88
2022-08-05T12:00:30.289Z,99584.72
2022-08-05T12:02:07.305Z,99592.41
2022-08-05T12:03:57.573Z,99589.41
2022-08-05T12:05:36.132Z,99592.91
2022-08-05T12:07:19.352Z,99590.59
2022-08-05T12:09:11.826Z,99585.56
2022-08-05T12:10:52.755Z,99589.44
2022-08-05T12:12:28.252Z,99589.16
2022-08-05T12:14:04.111Z,99582.31
2022-08-05T12:15:38.685Z,99586.84
2022-08-05T12:18:00.756Z,99582.28
2022-08-05T12:19:08.287Z,99575.59
2022-08-05T12:20:40.832Z,99574.97
2022-08-05T12:22:14.226Z,99570.81
2022-08-05T12:24:11.181Z,99574.81
2022-08-05T12:25:56.977Z,99569.56
2022-08-05T12:27:34.507Z,99570.97
2022-08-05T12:29:23.517Z,99570.88
2022-08-05T12:30:58.129Z,99574.00
2022-08-05T12:32:46.391Z,99573.56
2022-08-05T12:34:35.723Z,99574.38
2022-08-05T12:36:09.669Z,99569.09
2022-08-05T12:37:42.990Z,99569.91
2022-08-05T12:39:16.245Z,99561.97
2022-08-05T12:40:48.796Z,99562.28
2022-08-05T12:42:25.292Z,99558.38
2022-08-05T12:43:59.948Z,99557.25
2022-08-05T12:45:42.610Z,99556.50
2022-08-05T12:47:30.669Z,99552.78
2022-08-05T12:49:12.991Z,99552.03
2022-08-05T12:52:10.353Z,99550.09
2022-08-05T12:53:07.468Z,99553.81
2022-08-05T12:54:42.345Z,99552.59
2022-08-05T12:56:35.092Z,99545.66
2022-08-05T12:58:50.751Z,99544.81
2022-08-05T13:01:57.318Z,99544.09
2022-08-05T13:02:09.782Z,99548.16
2022-08-05T13:03:45.485Z,99538.06
2022-08-05T13:05:21.004Z,99541.06
2022-08-05T13:06:56.576Z,99537.56
2022-08-05T13:08:33.053Z,99538.94
2022-08-05T13:10:11.342Z,99528.75
2022-08-05T13:12:01.553Z,99532.72
2022-08-05T13:14:06.171Z,99532.31
2022-08-05T13:15:42.185Z,99522.59
2022-08-05T13:17:31.767Z,99529.97
2022-08-05T13:19:16.087Z,99527.09
2022-08-05T13:20:49.889Z,99520.75
2022-08-05T13:22:28.002Z,99518.78
2022-08-05T13:24:02.274Z,99524.22
2022-08-05T13:25:52.172Z,99513.91
2022-08-05T13:27:37.267Z,99516.22
2022-08-05T13:29:11.253Z,99514.69
2022-08-05T13:30:53.465Z,99519.91
2022-08-05T13:32:33.094Z,99518.50
2022-08-05T13:34:21.507Z,99517.66
2022-08-05T13:35:56.255Z,99515.41
2022-08-05T13:37:35.205Z,99511.69
2022-08-05T13:39:24.608Z,99521.06
2022-08-05T13:41:00.803Z,99515.84
2022-08-05T13:42:36.032Z,99515.69
2022-08-05T13:44:08.531Z,99520.81
2022-08-05T13:45:43.247Z,99511.94
2022-08-05T13:47:34.938Z,99511.81
2022-08-05T13:49:10.512Z,99513.34
2022-08-05T13:50:44.410Z,99512.72
2022-08-05T13:52:29.376Z,99513.84
2022-08-05T13:54:02.118Z,99507.75
2022-08-05T13:55:41.733Z,99505.84
2022-08-05T13:57:22.683Z,99504.38
2022-08-05T13:58:56.997Z,99511.13
2022-08-05T14:00:38.530Z,99508.19
2022-08-05T14:02:19.868Z,99497.78
2022-08-05T14:04:10.773Z,99504.13
2022-08-05T14:06:04.721Z,99497.44
2022-08-05T14:08:00.881Z,99499.94
2022-08-05T14:09:31.383Z,99496.50
2022-08-05T14:11:20.283Z,99493.69
2022-08-05T14:12:54.582Z,99491.94
2022-08-05T14:14:32.315Z,99495.06
2022-08-05T14:16:11.405Z,99493.28
2022-08-05T14:17:45.155Z,99487.25
2022-08-05T14:19:20.504Z,99494.38
2022-08-05T14:20:55.467Z,99497.53
2022-08-05T14:22:30.259Z,99485.16
2022-08-05T14:24:09.422Z,99485.25
2022-08-05T14:25:45.100Z,99481.16
2022-08-05T14:27:18.530Z,99480.38
2022-08-05T14:30:36.847Z,99475.97
2022-08-05T14:32:12.878Z,99477.41
2022-08-05T14:33:59.529Z,99476.22
2022-08-05T14:35:36.224Z,99474.72
2022-08-05T14:37:22.266Z,99476.13
2022-08-05T14:38:55.239Z,99473.28
2022-08-05T14:40:27.871Z,99467.16
2022-08-05T14:42:19.256Z,99472.53
2022-08-05T14:44:01.780Z,99464.47
2022-08-05T14:45:41.749Z,99470.91
2022-08-05T14:47:14.262Z,99471.47
2022-08-05T14:48:49.165Z,99465.66
2022-08-05T14:50:22.485Z,99469.34
2022-08-05T14:51:57.702Z,99468.34
2022-08-05T14:53:30.511Z,99460.91
2022-08-05T14:55:02.949Z,99457.59
2022-08-05T14:56:35.674Z,99458.88
2022-08-05T14:58:13.869Z,99465.66
2022-08-05T14:59:46.538Z,99455.09
2022-08-05T15:01:47.064Z,99457.13
2022-08-05T15:03:14.144Z,99454.63
2022-08-05T15:04:47.769Z,99458.91
2022-08-05T15:06:27.973Z,99450.44
2022-08-05T15:08:11.269Z,99448.09
2022-08-05T15:09:51.790Z,99453.66
2022-08-05T15:11:51.117Z,99451.19
2022-08-05T15:13:19.401Z,99452.84
2022-08-05T15:15:00.738Z,99451.38
2022-08-05T15:16:34.131Z,99436.66
2022-08-05T15:18:08.071Z,99441.22
2022-08-05T15:19:40.876Z,99440.94
2022-08-05T15:21:21.574Z,99441.69
2022-08-05T15:22:56.816Z,99440.59
2022-08-05T15:24:29.815Z,99447.81
2022-08-05T15:26:03.060Z,99446.16
2022-08-05T15:27:36.037Z,99447.56
2022-08-05T15:29:08.290Z,99445.53
2022-08-05T15:30:40.805Z,99444.00
2022-08-05T15:32:16.484Z,99446.22
2022-08-05T15:34:05.507Z,99442.25
2022-08-05T15:35:41.556Z,99447.34
2022-08-05T15:38:08.410Z,99445.88
2022-08-05T15:40:59.811Z,99444.75
2022-08-05T15:41:23.160Z,99443.47
2022-08-05T15:43:00.645Z,99441.00
2022-08-05T15:44:42.206Z,99440.72
2022-08-05T15:46:14.576Z,99442.97
2022-08-05T15:47:48.178Z,99441.44
2022-08-05T15:49:27.324Z,99442.81
2022-08-05T15:51:12.740Z,99447.09
2022-08-05T15:52:52.799Z,99442.66
2022-08-05T15:54:34.564Z,99449.34
2022-08-05T15:56:11.571Z,99447.00
2022-08-05T15:57:49.001Z,99445.91
2022-08-05T15:59:22.206Z,99444.63
2022-08-05T16:01:04.434Z,99441.28
2022-08-05T16:02:47.505Z,99440.00
2022-08-05T16:04:19.898Z,99440.53
2022-08-05T16:05:55.821Z,99433.47
2022-08-05T16:07:29.373Z,99437.53
2022-08-05T16:09:02.409Z,99437.72
2022-08-05T16:10:34.815Z,99435.25
2022-08-05T16:12:08.375Z,99428.38
2022-08-05T16:13:40.737Z,99432.25
2022-08-05T16:15:18.151Z,99437.16
2022-08-05T16:16:51.283Z,99432.34
2022-08-05T16:18:28.968Z,99433.88
2022-08-05T16:20:04.583Z,99435.47
2022-08-05T16:22:01.113Z,99434.34
2022-08-05T16:23:53.735Z,99432.38
2022-08-05T16:25:32.314Z,99434.31
2022-08-05T16:27:07.347Z,99441.84
2022-08-05T16:28:41.230Z,99431.19
2022-08-05T16:30:25.582Z,99434.59
2022-08-05T16:31:58.650Z,99433.66
2022-08-05T16:33:41.394Z,99437.88
2022-08-05T16:35:14.204Z,99434.19
2022-08-05T16:36:49.029Z,99440.91
2022-08-05T16:38:25.523Z,99433.69
2022-08-05T16:40:05.702Z,99434.53
2022-08-05T16:42:14.867Z,99438.03
2022-08-05T16:43:35.244Z,99435.34
2022-08-05T16:46:04.521Z,99434.03
2022-08-05T16:47:00.438Z,99437.25
2022-08-05T16:48:33.244Z,99440.00
2022-08-05T16:50:07.208Z,99427.97
2022-08-05T16:51:42.821Z,99442.78
2022-08-05T16:53:32.363Z,99444.00
2022-08-05T16:55:15.784Z,99439.06
2022-08-05T16:56:48.206Z,99439.75
2022-08-05T16:58:24.899Z,99441.75
2022-08-05T17:00:02.959Z,99443.78
2022-08-05T17:01:54.364Z,99445.78
2022-08-05T17:03:28.056Z,99445.13
2022-08-05T17:05:03.621Z,99451.19
2022-08-05T17:06:36.321Z,99440.34
2022-08-05T17:08:14.399Z,99443.22
2022-08-05T17:10:06.944Z,99441.38
2022-08-05T17:11:48.435Z,99442.06
2022-08-05T17:13:37.375Z,99450.38
2022-08-05T17:15:15.778Z,99442.72
2022-08-05T17:16:53.869Z,99440.38
2022-08-05T17:18:26.278Z,99439.47
2022-08-05T17:19:58.532Z,99444.50
2022-08-05T17:21:35.639Z,99443.50
2022-08-05T17:23:09.112Z,99450.31
2022-08-05T17:25:01.584Z,99446.28
2022-08-05T17:26:42.225Z,99449.47
2022-08-05T17:28:16.051Z,99447.75
2022-08-05T17:29:52.783Z,99455.72
2022-08-05T17:31:57.147Z,99454.16
2022-08-05T17:33:25.403Z,99456.59
2022-08-05T17:34:58.222Z,99455.19
2022-08-05T17:36:31.736Z,99461.66
2022-08-05T17:38:08.768Z,99454.91
2022-08-05T17:39:41.446Z,99458.09
2022-08-05T17:42:16.814Z,99457.50
2022-08-05T17:43:10.189Z,99458.47
2022-08-05T17:44:42.793Z,99454.56
2022-08-05T17:46:24.155Z,99456.34
2022-08-05T17:47:56.455Z,99467.06
2022-08-05T17:49:28.836Z,99465.09
2022-08-05T17:51:21.862Z,99474.56
2022-08-05T17:52:55.033Z,99465.16
2022-08-05T17:54:27.273Z,99468.31
2022-08-05T17:56:00.311Z,99476.81
2022-08-05T17:57:35.134Z,99470.94
2022-08-05T17:59:10.300Z,99461.19
2022-08-05T18:00:47.588Z,99469.19
2022-08-05T18:02:23.363Z,99468.25
2022-08-05T18:04:04.184Z,99464.53
2022-08-05T18:05:39.477Z,99476.69
2022-08-05T18:07:12.767Z,99475.31
2022-08-05T18:08:52.321Z,99478.69
2022-08-05T18:10:24.907Z,99478.69
2022-08-05T18:11:58.219Z,99470.59
2022-08-05T18:13:36.858Z,99477.59
2022-08-05T18:15:16.814Z,99485.69
2022-08-05T18:16:52.000Z,99483.19
2022-08-05T18:18:26.326Z,99490.31
2022-08-05T18:19:59.148Z,99490.56
2022-08-05T18:22:08.864Z,99490.13
2022-08-05T18:23:24.019Z,99491.09
2022-08-05T18:25:02.635Z,99496.25
2022-08-05T18:26:35.052Z,99496.25
2022-08-05T18:28:10.709Z,99505.72
2022-08-05T18:29:43.049Z,99503.19
2022-08-05T18:31:24.357Z,99500.06
2022-08-05T18:33:01.061Z,99505.34
2022-08-05T18:34:40.840Z,99503.34
2022-08-05T18:36:15.299Z,99505.81
2022-08-05T18:37:48.333Z,99505.75
2022-08-05T18:39:42.517Z,99505.34
2022-08-05T18:42:00.685Z,99513.09
2022-08-05T18:43:05.712Z,99509.69
2022-08-05T18:44:49.261Z,99514.06
2022-08-05T18:46:29.074Z,99507.84
2022-08-05T18:48:01.587Z,99508.75
2022-08-05T18:49:58.334Z,99509.84
2022-08-05T18:52:05.769Z,99511.34
2022-08-05T18:53:45.893Z,99516.28
2022-08-05T18:55:22.747Z,99523.91
2022-08-05T18:56:54.956Z,99523.69
2022-08-05T18:58:29.595Z,99527.09
2022-08-05T19:00:11.795Z,99528.69
2022-08-05T19:01:57.046Z,99530.25
2022-08-05T19:03:52.731Z,99527.00
2022-08-05T19:06:13.455Z,99527.94
2022-08-05T19:07:16.423Z,99535.44
2022-08-05T19:08:48.990Z,99539.41
2022-08-05T19:10:26.619Z,99535.31
2022-08-05T19:12:01.618Z,99543.63
2022-08-05T19:13:35.931Z,99534.38
2022-08-05T19:15:25.245Z,99539.31
2022-08-05T19:17:03.217Z,99538.00
2022-08-05T19:18:39.644Z,99531.63
2022-08-05T19:20:13.100Z,99523.94
2022-08-05T19:21:47.971Z,99535.13
2022-08-05T19:24:05.952Z,99529.34
2022-08-05T19:25:21.610Z,99528.88
2022-08-05T19:27:04.427Z,99526.69
2022-08-05T19:28:43.317Z,99523.41
2022-08-05T19:30:16.503Z,99524.75
2022-08-05T19:31:52.990Z,99527.72
2022-08-05T19:33:35.937Z,99520.16
2022-08-05T19:35:09.264Z,99521.97
2022-08-05T19:36:42.524Z,99520.63
2022-08-05T19:38:14.658Z,99526.38
2022-08-05T19:39:50.961Z,99520.63
2022-08-05T19:41:58.323Z,99528.16
2022-08-05T19:44:03.855Z,99520.81
2022-08-05T19:45:08.847Z,99524.75
2022-08-05T19:46:47.111Z,99525.22
2022-08-05T19:48:22.428Z,99523.75
2022-08-05T19:49:57.481Z,99522.44
2022-08-05T19:52:04.644Z,99533.44
2022-08-05T19:54:04.676Z,99517.06
2022-08-05T19:56:15.599Z,99523.53
2022-08-05T19:57:08.691Z,99529.03
2022-08-05T19:58:53.563Z,99534.78
2022-08-05T20:00:27.429Z,99522.88
2022-08-05T20:02:01.850Z,99524.03
2022-08-05T20:03:40.684Z,99528.94
2022-08-05T20:05:16.582Z,99523.84
2022-08-05T20:06:56.969Z,99528.09
2022-08-05T20:08:30.812Z,99527.47
2022-08-05T20:10:13.626Z,99524.94
2022-08-05T20:11:48.045Z,99521.91
2022-08-05T20:13:30.022Z,99525.91
2022-08-05T20:15:13.250Z,99522.28
2022-08-05T20:16:47.272Z,99519.34
2022-08-05T20:18:32.735Z,99519.78
2022-08-05T20:20:09.530Z,99520.19
2022-08-05T20:21:43.793Z,99523.25
2022-08-05T20:23:17.029Z,99529.69
2022-08-05T20:24:57.108Z,99519.34
2022-08-05T20:26:33.274Z,99522.22
2022-08-05T20:28:14.533Z,99522.94
2022-08-05T20:29:57.803Z,99524.84
2022-08-05T20:31:42.044Z,99516.94
2022-08-05T20:33:16.015Z,99519.59
2022-08-05T20:34:48.333Z,99522.22